Data Viewer
| City | State | Eastern Time | Source | Temp | DewPt | RH | BP | 5 Min Precip | Wind Speed | Wind Dir | 5 Min Wind Max | 5 Min Wind Max Dir |
|---|---|---|---|---|---|---|---|---|---|---|---|---|
| Nantucket | MA | 2026-05-09 13:53 | ASOS | 56 | 47 | 72 | 29.98 | 15 | SSW | |||
| Nantucket | MA | 2026-05-10 08:30 | ASOS | 55 | 54 | 94 | 29.93 | 3 | SSE | |||
| Nantucket | MA | 2026-05-10 09:35 | ASOS | 57 | 55 | 94 | 29.93 | 5 | S | |||
| Nantucket | MA | 2026-05-10 09:30 | ASOS | 57 | 55 | 94 | 29.93 | 5 | S | |||
| Nantucket | MA | 2026-05-10 09:25 | ASOS | 55 | 54 | 94 | 29.93 | |||||
| Nantucket | MA | 2026-05-10 09:21 | ASOS | 56 | 54 | 93 | 29.93 | 5 | S | |||
| Nantucket | MA | 2026-05-10 09:20 | ASOS | 55 | 54 | 94 | 29.93 | 5 | S | |||
| Nantucket | MA | 2026-05-10 09:15 | ASOS | 55 | 54 | 94 | 29.93 | 5 | S | |||
| Nantucket | MA | 2026-05-10 09:10 | ASOS | 55 | 54 | 94 | 29.93 | 5 | SSE | |||
| Nantucket | MA | 2026-05-10 09:05 | ASOS | 55 | 54 | 94 | 29.94 | 5 | SSE | |||
| Nantucket | MA | 2026-05-10 08:55 | ASOS | 55 | 54 | 94 | 29.94 | 7 | S | |||
| Nantucket | MA | 2026-05-10 08:53 | ASOS | 55 | 54 | 96 | 29.94 | 6 | SSE | |||
| Nantucket | MA | 2026-05-10 08:50 | ASOS | 55 | 54 | 94 | 29.94 | 6 | SSE | |||
| Nantucket | MA | 2026-05-10 08:40 | ASOS | 55 | 54 | 94 | 29.93 | 3 | SSE | |||
| Nantucket | MA | 2026-05-10 08:35 | ASOS | 55 | 54 | 94 | 29.93 | 3 | SSE | |||
| Nantucket | MA | 2026-05-10 08:25 | ASOS | 55 | 54 | 94 | 29.93 | 3 | SE | |||
| Nantucket | MA | 2026-05-10 09:45 | ASOS | 59 | 55 | 88 | 29.93 | 8 | S | |||
| Nantucket | MA | 2026-05-10 08:20 | ASOS | 54 | 54 | 100 | 29.93 | 3 | SSE | |||
| Nantucket | MA | 2026-05-10 08:15 | ASOS | 54 | 54 | 100 | 29.93 | 0 | N | |||
| Nantucket | MA | 2026-05-10 08:05 | ASOS | 54 | 54 | 100 | 29.93 | 5 | SE | |||
| Nantucket | MA | 2026-05-10 07:55 | ASOS | 54 | 54 | 100 | 29.93 | 5 | SSE | |||
| Nantucket | MA | 2026-05-10 07:53 | ASOS | 53 | 52 | 96 | 29.93 | 5 | SE | |||
| Nantucket | MA | 2026-05-10 07:50 | ASOS | 54 | 52 | 94 | 29.93 | 7 | SE | |||
| Nantucket | MA | 2026-05-10 07:45 | ASOS | 54 | 52 | 94 | 29.93 | 6 | SSE | |||
| Nantucket | MA | 2026-05-10 07:35 | ASOS | 52 | 52 | 100 | 29.94 | 5 | SSE | |||
| Nantucket | MA | 2026-05-10 07:30 | ASOS | 54 | 52 | 94 | 29.94 | 5 | SE | |||
| Nantucket | MA | 2026-05-10 07:25 | ASOS | 54 | 52 | 94 | 29.94 | 5 | SE | |||
| Nantucket | MA | 2026-05-10 07:20 | ASOS | 54 | 52 | 94 | 29.94 | 6 | ESE | |||
| Nantucket | MA | 2026-05-10 07:15 | ASOS | 52 | 52 | 100 | 29.94 | 6 | SE | |||
| Nantucket | MA | 2026-05-10 07:10 | ASOS | 52 | 52 | 100 | 29.94 | 6 | SE | |||
| Nantucket | MA | 2026-05-10 07:00 | ASOS | 52 | 52 | 100 | 29.94 | 6 | SE | |||
| Nantucket | MA | 2026-05-10 09:40 | ASOS | 57 | 55 | 94 | 29.93 | 6 | S | |||
| Nantucket | MA | 2026-05-10 09:50 | ASOS | 57 | 54 | 88 | 29.93 | 9 | S | |||
| Nantucket | MA | 2026-05-10 06:50 | ASOS | 52 | 52 | 100 | 29.94 | 5 | SSE | |||
| Nantucket | MA | 2026-05-10 11:20 | ASOS | 55 | 54 | 94 | 29.96 | 10 | SW | |||
| Nantucket | MA | 2026-05-10 12:30 | ASOS | 57 | 54 | 88 | 29.95 | 10 | SW | |||
| Nantucket | MA | 2026-05-10 12:25 | ASOS | 57 | 54 | 88 | 29.95 | 10 | SW | |||
| Nantucket | MA | 2026-05-10 12:20 | ASOS | 57 | 55 | 94 | 29.95 | 10 | SW | |||
| Nantucket | MA | 2026-05-10 12:15 | ASOS | 57 | 55 | 94 | 29.95 | 12 | SW | |||
| Nantucket | MA | 2026-05-10 12:10 | ASOS | 59 | 55 | 88 | 29.95 | 12 | SW | |||
| Nantucket | MA | 2026-05-10 12:05 | ASOS | 57 | 54 | 88 | 29.95 | 10 | SW | |||
| Nantucket | MA | 2026-05-10 11:55 | ASOS | 57 | 54 | 88 | 29.95 | 12 | SW | |||
| Nantucket | MA | 2026-05-10 11:53 | ASOS | 57 | 54 | 89 | 29.95 | 12 | SW | |||
| Nantucket | MA | 2026-05-10 11:50 | ASOS | 55 | 54 | 94 | 29.95 | 13 | SW | |||
| Nantucket | MA | 2026-05-10 11:45 | ASOS | 55 | 54 | 94 | 29.95 | 13 | SSW | |||
| Nantucket | MA | 2026-05-10 11:40 | ASOS | 57 | 54 | 88 | 29.96 | 12 | SSW | |||
| Nantucket | MA | 2026-05-10 11:35 | ASOS | 55 | 54 | 94 | 29.96 | 12 | SW | |||
| Nantucket | MA | 2026-05-10 11:30 | ASOS | 57 | 54 | 88 | 29.96 | 12 | SW | |||
| Nantucket | MA | 2026-05-10 11:25 | ASOS | 57 | 54 | 88 | 29.96 | 10 | WSW | |||
| Nantucket | MA | 2026-05-10 11:15 | ASOS | 55 | 52 | 88 | 29.96 | 9 | SW | |||
| Nantucket | MA | 2026-05-10 09:53 | ASOS | 57 | 53 | 87 | 29.93 | 8 | S | |||
| Nantucket | MA | 2026-05-10 11:10 | ASOS | 55 | 52 | 88 | 29.96 | 9 | SW | |||
| Nantucket | MA | 2026-05-10 11:00 | ASOS | 55 | 52 | 88 | 29.96 | 10 | SSW | |||
| Nantucket | MA | 2026-05-10 10:53 | ASOS | 56 | 52 | 87 | 29.95 | 9 | SSW | |||
| Nantucket | MA | 2026-05-10 10:50 | ASOS | 55 | 52 | 88 | 29.95 | 9 | SSW | |||
| Nantucket | MA | 2026-05-10 10:45 | ASOS | 57 | 52 | 82 | 29.95 | 10 | SSW | |||
| Nantucket | MA | 2026-05-10 10:40 | ASOS | 57 | 54 | 88 | 29.95 | 8 | SW | |||
| Nantucket | MA | 2026-05-10 10:35 | ASOS | 55 | 52 | 88 | 29.95 | 7 | SSW | |||
| Nantucket | MA | 2026-05-10 10:30 | ASOS | 57 | 54 | 88 | 29.95 | 8 | SW | |||
| Nantucket | MA | 2026-05-10 10:25 | ASOS | 57 | 54 | 88 | 29.95 | 8 | SW | |||
| Nantucket | MA | 2026-05-10 10:20 | ASOS | 57 | 52 | 82 | 29.94 | 8 | S | |||
| Nantucket | MA | 2026-05-10 10:15 | ASOS | 57 | 54 | 88 | 29.94 | 9 | SSE | |||
| Nantucket | MA | 2026-05-10 10:05 | ASOS | 57 | 54 | 88 | 29.94 | 8 | SSE | |||
| Nantucket | MA | 2026-05-10 10:00 | ASOS | 57 | 54 | 88 | 29.93 | 8 | S | |||
| Nantucket | MA | 2026-05-10 09:55 | ASOS | 57 | 54 | 88 | 29.93 | 8 | S | |||
| Nantucket | MA | 2026-05-10 06:53 | ASOS | 52 | 52 | 100 | 29.94 | 6 | SSE | |||
| Nantucket | MA | 2026-05-10 06:46 | ASOS | 52 | 51 | 97 | 29.94 | 6 | SSE | |||
| Nantucket | MA | 2026-05-09 14:50 | ASOS | 57 | 44 | 63 | 29.95 | 18 | S | |||
| Nantucket | MA | 2026-05-10 02:53 | ASOS | 51 | 51 | 100 | 29.90 | 12 | SSE | |||
| Nantucket | MA | 2026-05-10 03:53 | ASOS | 51 | 51 | 100 | 29.91 | 10 | SSE | |||
| Nantucket | MA | 2026-05-10 03:45 | ASOS | 52 | 52 | 100 | 29.91 | 10 | S | |||
| Nantucket | MA | 2026-05-10 03:41 | ASOS | 52 | 51 | 97 | 29.91 | 10 | SSE | |||
| Nantucket | MA | 2026-05-10 03:40 | ASOS | 52 | 52 | 100 | 29.91 | 10 | SSE | |||
| Nantucket | MA | 2026-05-10 03:35 | ASOS | 52 | 52 | 100 | 29.90 | 9 | SSE | |||
| Nantucket | MA | 2026-05-10 03:30 | ASOS | 52 | 52 | 100 | 29.90 | 10 | SSE | |||
| Nantucket | MA | 2026-05-10 03:25 | ASOS | 52 | 52 | 100 | 29.90 | 10 | SSE | |||
| Nantucket | MA | 2026-05-10 03:20 | ASOS | 52 | 52 | 100 | 29.90 | 9 | SSE | |||
| Nantucket | MA | 2026-05-10 03:15 | ASOS | 52 | 50 | 94 | 29.90 | 10 | SSE | |||
| Nantucket | MA | 2026-05-10 03:12 | ASOS | 51 | 50 | 96 | 29.90 | 10 | SSE | |||
| Nantucket | MA | 2026-05-10 03:10 | ASOS | 52 | 50 | 94 | 29.90 | 12 | SSE | |||
| Nantucket | MA | 2026-05-10 03:05 | ASOS | 52 | 50 | 94 | 29.90 | 10 | SSE | |||
| Nantucket | MA | 2026-05-10 03:00 | ASOS | 52 | 50 | 94 | 29.90 | 12 | SSE | |||
| Nantucket | MA | 2026-05-10 02:55 | ASOS | 52 | 52 | 100 | 29.90 | 13 | SSE | |||
| Nantucket | MA | 2026-05-10 02:50 | ASOS | 52 | 50 | 94 | 29.90 | 13 | SSE | |||
| Nantucket | MA | 2026-05-10 04:00 | ASOS | 52 | 50 | 94 | 29.91 | 8 | SSE | |||
| Nantucket | MA | 2026-05-10 02:40 | ASOS | 52 | 50 | 94 | 29.90 | 14 | SSE | |||
| Nantucket | MA | 2026-05-10 02:35 | ASOS | 52 | 50 | 94 | 29.90 | 14 | SSE | |||
| Nantucket | MA | 2026-05-10 02:30 | ASOS | 52 | 50 | 94 | 29.90 | 15 | SSE | |||
| Nantucket | MA | 2026-05-10 02:25 | ASOS | 52 | 50 | 94 | 29.90 | 14 | SSE | |||
| Nantucket | MA | 2026-05-10 02:20 | ASOS | 52 | 52 | 100 | 29.90 | 15 | SSE | |||
| Nantucket | MA | 2026-05-10 02:15 | ASOS | 52 | 52 | 100 | 29.89 | 16 | SSE | |||
| Nantucket | MA | 2026-05-10 01:53 | ASOS | 53 | 51 | 93 | 29.89 | 18 | SSE | |||
| Nantucket | MA | 2026-05-09 23:53 | ASOS | 53 | 51 | 93 | 29.92 | 18 | SE | |||
| Nantucket | MA | 2026-05-09 22:53 | ASOS | 52 | 50 | 93 | 29.92 | 17 | SE | |||
| Nantucket | MA | 2026-05-09 22:05 | ASOS | 52 | 48 | 87 | 29.97 | 8 | SSE | |||
| Nantucket | MA | 2026-05-09 20:53 | ASOS | 54 | 46 | 75 | 30.00 | 10 | SW | |||
| Nantucket | MA | 2026-05-09 18:53 | ASOS | 53 | 47 | 80 | 29.95 | 13 | S | |||
| Nantucket | MA | 2026-05-09 17:53 | ASOS | 55 | 46 | 72 | 29.95 | 16 | S | |||
| Nantucket | MA | 2026-05-09 14:53 | ASOS | 57 | 45 | 64 | 29.95 | 18 | S | |||
| Nantucket | MA | 2026-05-10 03:55 | ASOS | 52 | 52 | 100 | 29.91 | 9 | SSE | |||
| Nantucket | MA | 2026-05-10 04:05 | ASOS | 52 | 50 | 94 | 29.91 | 9 | SSE | |||
| Nantucket | MA | 2026-05-10 06:40 | ASOS | 52 | 52 | 100 | 29.93 | 5 | SE | |||
| Nantucket | MA | 2026-05-10 05:35 | ASOS | 52 | 52 | 100 | 29.91 | 12 | SSE | |||
| Nantucket | MA | 2026-05-10 06:38 | ASOS | 51 | 51 | 100 | 29.93 | 6 | SSE | |||
| Nantucket | MA | 2026-05-10 06:35 | ASOS | 52 | 52 | 100 | 29.93 | 6 | SE | |||
| Nantucket | MA | 2026-05-10 06:30 | ASOS | 52 | 52 | 100 | 29.93 | 6 | SSE | |||
| Nantucket | MA | 2026-05-10 06:25 | ASOS | 52 | 52 | 100 | 29.93 | 6 | S | |||
| Nantucket | MA | 2026-05-10 06:20 | ASOS | 52 | 52 | 100 | 29.92 | 7 | S | |||
| Nantucket | MA | 2026-05-10 06:17 | ASOS | 51 | 51 | 100 | 29.92 | 8 | SSE | |||
| Nantucket | MA | 2026-05-10 06:15 | ASOS | 52 | 52 | 100 | 29.92 | 8 | SSE | |||
| Nantucket | MA | 2026-05-10 06:05 | ASOS | 52 | 52 | 100 | 29.92 | 9 | SSE | |||
| Nantucket | MA | 2026-05-10 06:00 | ASOS | 52 | 52 | 100 | 29.92 | 10 | SSE | |||
| Nantucket | MA | 2026-05-10 05:55 | ASOS | 52 | 52 | 100 | 29.91 | 10 | SSE | |||
| Nantucket | MA | 2026-05-10 05:53 | ASOS | 52 | 52 | 100 | 29.91 | 12 | SSE | |||
| Nantucket | MA | 2026-05-10 05:50 | ASOS | 52 | 52 | 100 | 29.91 | 12 | S | |||
| Nantucket | MA | 2026-05-10 05:45 | ASOS | 52 | 52 | 100 | 29.91 | 12 | SSE | |||
| Nantucket | MA | 2026-05-10 05:40 | ASOS | 52 | 52 | 100 | 29.91 | 12 | SSE | |||
| Nantucket | MA | 2026-05-10 05:30 | ASOS | 52 | 52 | 100 | 29.91 | 13 | SSE | |||
| Nantucket | MA | 2026-05-10 04:15 | ASOS | 52 | 50 | 94 | 29.91 | 8 | SSE | |||
| Nantucket | MA | 2026-05-10 05:25 | ASOS | 52 | 52 | 100 | 29.91 | 12 | SSE | |||
| Nantucket | MA | 2026-05-10 05:20 | ASOS | 52 | 52 | 100 | 29.91 | 12 | SSE | |||
| Nantucket | MA | 2026-05-10 05:15 | ASOS | 52 | 52 | 100 | 29.91 | 12 | SSE | |||
| Nantucket | MA | 2026-05-10 05:10 | ASOS | 52 | 52 | 100 | 29.91 | 12 | SSE | |||
| Nantucket | MA | 2026-05-10 05:05 | ASOS | 52 | 52 | 100 | 29.91 | 9 | S | |||
| Nantucket | MA | 2026-05-10 05:00 | ASOS | 52 | 52 | 100 | 29.91 | 9 | S | |||
| Nantucket | MA | 2026-05-10 04:55 | ASOS | 52 | 52 | 100 | 29.91 | 9 | SSE | |||
| Nantucket | MA | 2026-05-10 04:53 | ASOS | 52 | 52 | 100 | 29.91 | 9 | SSE | |||
| Nantucket | MA | 2026-05-10 04:45 | ASOS | 52 | 52 | 100 | 29.91 | 10 | S | |||
| Nantucket | MA | 2026-05-10 04:42 | ASOS | 52 | 52 | 100 | 29.91 | 8 | S | |||
| Nantucket | MA | 2026-05-10 04:40 | ASOS | 52 | 52 | 100 | 29.91 | 9 | S | |||
| Nantucket | MA | 2026-05-10 04:35 | ASOS | 52 | 52 | 100 | 29.91 | 10 | SSE | |||
| Nantucket | MA | 2026-05-10 04:25 | ASOS | 52 | 52 | 100 | 29.91 | 8 | SSE | |||
| Nantucket | MA | 2026-05-10 04:20 | ASOS | 52 | 50 | 94 | 29.91 | 7 | SSE | |||
| Nantucket | MA | 2026-05-10 12:35 | ASOS | 57 | 54 | 88 | 29.95 | 10 | SW |
data collection created in 0.020632982254028 (queried in 0.004302) rendered in: 0.00026082992553711

